createdAt,value
2023-05-10T00:00:32.265Z,96011.94
2023-05-10T00:03:00.304Z,96006.44
2023-05-10T00:05:28.199Z,96010.63
2023-05-10T00:07:56.071Z,96008.56
2023-05-10T00:10:24.057Z,96005.34
2023-05-10T00:12:53.243Z,96010.94
2023-05-10T00:15:21.267Z,96010.25
2023-05-10T00:17:49.175Z,96013.88
2023-05-10T00:20:17.413Z,96006.56
2023-05-10T00:22:45.551Z,96011.22
2023-05-10T00:25:13.439Z,96010.13
2023-05-10T00:27:41.270Z,96009.59
2023-05-10T00:30:11.177Z,96004.28
2023-05-10T00:32:39.100Z,96010.50
2023-05-10T00:35:07.733Z,96006.63
2023-05-10T00:37:35.652Z,96009.53
2023-05-10T00:40:03.615Z,96008.03
2023-05-10T00:42:31.504Z,96016.88
2023-05-10T00:44:59.590Z,96014.00
2023-05-10T00:47:29.641Z,96011.66
2023-05-10T00:49:58.135Z,96022.25
2023-05-10T00:52:26.985Z,96016.97
2023-05-10T00:54:55.321Z,96025.75
2023-05-10T00:57:23.282Z,96027.25
2023-05-10T00:59:51.389Z,96023.25
2023-05-10T01:02:20.021Z,96029.03
2023-05-10T01:04:49.482Z,96023.41
2023-05-10T01:07:17.963Z,96022.88
2023-05-10T01:09:45.944Z,96020.16
2023-05-10T01:12:13.913Z,96023.34
2023-05-10T01:14:41.941Z,96024.06
2023-05-10T01:17:12.037Z,96024.31
2023-05-10T01:19:40.320Z,96031.00
2023-05-10T01:22:27.457Z,96027.09
2023-05-10T01:25:30.765Z,96038.03
2023-05-10T01:28:19.625Z,96030.75
2023-05-10T01:31:12.347Z,96031.91
2023-05-10T01:33:48.962Z,96036.75
2023-05-10T01:36:27.045Z,96045.97
2023-05-10T01:39:01.027Z,96036.38
2023-05-10T01:41:42.083Z,96039.84
2023-05-10T01:44:18.729Z,96050.47
2023-05-10T01:46:52.938Z,96047.81
2023-05-10T01:49:27.418Z,96047.25
2023-05-10T01:52:01.300Z,96048.94
2023-05-10T01:54:31.163Z,96053.56
2023-05-10T01:57:08.701Z,96058.19
2023-05-10T01:59:41.601Z,96051.22
2023-05-10T02:02:13.022Z,96060.97
2023-05-10T02:04:44.239Z,96059.69
2023-05-10T02:07:12.716Z,96068.78
2023-05-10T02:09:40.765Z,96065.63
2023-05-10T02:12:09.890Z,96055.28
2023-05-10T02:14:39.899Z,96058.81
2023-05-10T02:17:09.682Z,96065.06
2023-05-10T02:19:40.545Z,96067.59
2023-05-10T02:22:10.961Z,96071.06
2023-05-10T02:24:40.705Z,96073.03
2023-05-10T02:27:10.635Z,96075.16
2023-05-10T02:29:39.035Z,96075.16
2023-05-10T02:32:08.422Z,96080.59
2023-05-10T02:34:37.025Z,96079.53
2023-05-10T02:37:05.544Z,96086.47
2023-05-10T02:39:36.617Z,96087.47
2023-05-10T02:42:06.103Z,96096.81
2023-05-10T02:44:36.213Z,96088.16
2023-05-10T02:47:05.029Z,96096.56
2023-05-10T02:49:32.855Z,96087.34
2023-05-10T02:52:03.847Z,96092.78
2023-05-10T02:54:40.318Z,96097.38
2023-05-10T02:57:09.219Z,96089.44
2023-05-10T02:59:38.006Z,96084.44
2023-05-10T03:02:06.123Z,96097.69
2023-05-10T03:04:34.156Z,96091.41
2023-05-10T03:07:02.008Z,96094.75
2023-05-10T03:09:31.092Z,96089.75
2023-05-10T03:12:07.556Z,96092.09
2023-05-10T03:14:47.503Z,96099.34
2023-05-10T03:17:24.601Z,96099.34
2023-05-10T03:19:56.234Z,96101.03
2023-05-10T03:22:28.366Z,96092.53
2023-05-10T03:24:58.654Z,96098.22
2023-05-10T03:27:32.117Z,96101.56
2023-05-10T03:30:02.285Z,96106.03
2023-05-10T03:32:35.306Z,96109.66
2023-05-10T03:35:03.397Z,96102.13
2023-05-10T03:37:31.572Z,96102.13
2023-05-10T03:39:59.429Z,96107.44
2023-05-10T03:42:27.369Z,96110.94
2023-05-10T03:44:56.701Z,96112.75
2023-05-10T03:47:25.096Z,96118.75
2023-05-10T03:49:53.753Z,96119.03
2023-05-10T03:52:21.685Z,96126.31
2023-05-10T03:54:49.726Z,96122.81
2023-05-10T03:57:17.757Z,96119.34
2023-05-10T03:59:46.303Z,96123.13
2023-05-10T04:02:15.568Z,96117.81
2023-05-10T04:04:43.473Z,96122.00
2023-05-10T04:07:11.735Z,96119.47
2023-05-10T04:09:40.006Z,96112.53
2023-05-10T04:12:10.732Z,96114.31
2023-05-10T04:14:38.864Z,96119.19
2023-05-10T04:17:07.250Z,96122.69
2023-05-10T04:19:36.495Z,96117.66
2023-05-10T04:22:04.998Z,96123.97
2023-05-10T04:24:32.864Z,96123.97
2023-05-10T04:27:00.663Z,96119.47
2023-05-10T04:29:28.747Z,96127.44
2023-05-10T04:31:57.552Z,96131.78
2023-05-10T04:34:25.444Z,96133.44
2023-05-10T04:36:54.642Z,96128.00
2023-05-10T04:39:22.473Z,96137.91
2023-05-10T04:41:50.363Z,96133.56
2023-05-10T04:44:18.154Z,96132.00
2023-05-10T04:46:46.087Z,96132.28
2023-05-10T04:49:13.954Z,96132.28
2023-05-10T04:51:41.760Z,96136.78
2023-05-10T04:54:11.306Z,96140.13
2023-05-10T04:56:39.153Z,96144.56
2023-05-10T04:59:07.008Z,96137.28
2023-05-10T05:01:35.164Z,96141.78
2023-05-10T05:04:03.061Z,96141.78
2023-05-10T05:06:31.153Z,96145.94
2023-05-10T05:08:58.987Z,96134.50
2023-05-10T05:11:28.185Z,96139.69
2023-05-10T05:13:56.021Z,96143.97
2023-05-10T05:16:23.922Z,96147.63
2023-05-10T05:18:52.056Z,96144.53
2023-05-10T05:21:20.606Z,96149.97
2023-05-10T05:23:48.514Z,96152.63
2023-05-10T05:26:17.027Z,96151.50
2023-05-10T05:28:46.320Z,96157.63
2023-05-10T05:31:14.919Z,96153.72
2023-05-10T05:33:42.765Z,96159.41
2023-05-10T05:36:11.012Z,96158.88
2023-05-10T05:38:38.881Z,96159.97
2023-05-10T05:41:06.840Z,96166.22
2023-05-10T05:43:36.665Z,96165.97
2023-05-10T05:46:08.241Z,96166.78
2023-05-10T05:48:36.100Z,96162.69
2023-05-10T05:51:05.786Z,96157.56
2023-05-10T05:53:35.158Z,96165.34
2023-05-10T05:56:04.168Z,96161.72
2023-05-10T05:58:31.995Z,96172.84
2023-05-10T06:00:59.987Z,96167.25
2023-05-10T06:03:29.344Z,96173.09
2023-05-10T06:05:57.247Z,96178.41
2023-05-10T06:08:25.123Z,96179.41
2023-05-10T06:10:52.936Z,96187.81
2023-05-10T06:13:20.873Z,96191.13
2023-05-10T06:15:48.811Z,96189.84
2023-05-10T06:18:16.731Z,96201.47
2023-05-10T06:20:45.944Z,96191.38
2023-05-10T06:23:13.777Z,96193.50
2023-05-10T06:25:41.634Z,96193.34
2023-05-10T06:28:09.504Z,96202.69
2023-05-10T06:30:38.636Z,96197.50
2023-05-10T06:33:06.774Z,96205.63
2023-05-10T06:35:34.698Z,96208.81
2023-05-10T06:38:03.837Z,96207.97
2023-05-10T06:40:31.637Z,96207.03
2023-05-10T06:42:59.469Z,96207.28
2023-05-10T06:45:27.293Z,96213.00
2023-05-10T06:47:55.273Z,96209.44
2023-05-10T06:50:23.495Z,96210.53
2023-05-10T06:52:52.954Z,96208.72
2023-05-10T06:55:22.734Z,96209.25
2023-05-10T06:57:51.514Z,96206.00
2023-05-10T07:00:20.964Z,96207.06
2023-05-10T07:02:49.587Z,96209.09
2023-05-10T07:05:17.874Z,96201.59
2023-05-10T07:07:46.131Z,96200.59
2023-05-10T07:10:14.393Z,96203.63
2023-05-10T07:12:43.792Z,96204.00
2023-05-10T07:15:12.116Z,96205.00
2023-05-10T07:17:40.837Z,96203.72
2023-05-10T07:20:11.038Z,96208.84
2023-05-10T07:22:38.909Z,96213.44
2023-05-10T07:25:07.707Z,96209.25
2023-05-10T07:27:35.893Z,96213.44
2023-05-10T07:30:05.679Z,96207.19
2023-05-10T07:32:33.759Z,96209.91
2023-05-10T07:35:01.649Z,96216.50
2023-05-10T07:37:29.501Z,96211.75
2023-05-10T07:39:57.601Z,96224.72
2023-05-10T07:42:25.554Z,96216.59
2023-05-10T07:44:53.492Z,96218.88
2023-05-10T07:47:22.710Z,96215.78
2023-05-10T07:49:50.687Z,96217.09
2023-05-10T07:52:18.601Z,96221.44
2023-05-10T07:54:46.863Z,96216.97
2023-05-10T07:57:18.335Z,96219.84
2023-05-10T07:59:46.733Z,96221.34
2023-05-10T08:02:14.566Z,96225.66
2023-05-10T08:04:43.964Z,96224.75
2023-05-10T08:07:12.504Z,96222.78
2023-05-10T08:09:40.395Z,96225.44
2023-05-10T08:12:08.404Z,96229.78
2023-05-10T08:14:37.565Z,96226.81
2023-05-10T08:17:05.463Z,96235.94
2023-05-10T08:19:33.368Z,96234.13
2023-05-10T08:22:02.708Z,96242.13
2023-05-10T08:24:30.474Z,96237.38
2023-05-10T08:26:58.344Z,96240.53
2023-05-10T08:29:26.754Z,96242.69
2023-05-10T08:31:56.395Z,96236.88
2023-05-10T08:34:25.031Z,96237.69
2023-05-10T08:36:53.092Z,96238.59
2023-05-10T08:39:29.749Z,96248.22
2023-05-10T08:42:01.875Z,96250.19
2023-05-10T08:44:29.976Z,96251.91
2023-05-10T08:46:59.590Z,96257.72
2023-05-10T08:49:29.502Z,96247.53
2023-05-10T08:51:58.171Z,96253.75
2023-05-10T08:54:27.682Z,96264.09
2023-05-10T08:56:55.519Z,96261.13
2023-05-10T08:59:23.536Z,96264.47
2023-05-10T09:01:52.344Z,96270.94
2023-05-10T09:04:21.384Z,96274.94
2023-05-10T09:06:49.437Z,96279.09
2023-05-10T09:09:18.323Z,96269.03
2023-05-10T09:11:47.933Z,96270.41
2023-05-10T09:14:18.276Z,96279.22
2023-05-10T09:16:46.534Z,96278.81
2023-05-10T09:19:14.475Z,96277.69
2023-05-10T09:21:42.591Z,96281.28
2023-05-10T09:24:10.968Z,96276.75
2023-05-10T09:26:50.433Z,96279.06
2023-05-10T09:29:18.445Z,96280.59
2023-05-10T09:31:48.517Z,96276.66
2023-05-10T09:34:20.992Z,96273.16
2023-05-10T09:36:59.669Z,96276.84
2023-05-10T09:39:34.221Z,96276.53
2023-05-10T09:42:05.719Z,96269.56
2023-05-10T09:44:34.433Z,96282.06
2023-05-10T09:47:02.754Z,96279.28
2023-05-10T09:49:31.002Z,96281.47
2023-05-10T09:52:03.569Z,96286.63
2023-05-10T09:54:31.650Z,96282.34
2023-05-10T09:56:59.476Z,96278.31
2023-05-10T09:59:30.067Z,96274.38
2023-05-10T10:01:59.398Z,96269.69
2023-05-10T10:04:28.311Z,96273.91
2023-05-10T10:07:05.049Z,96274.41
2023-05-10T10:09:33.314Z,96284.72
2023-05-10T10:12:01.664Z,96294.75
2023-05-10T10:14:31.306Z,96293.44
2023-05-10T10:17:08.277Z,96283.44
2023-05-10T10:19:38.039Z,96272.28
2023-05-10T10:22:06.706Z,96280.78
2023-05-10T10:24:34.856Z,96279.50
2023-05-10T10:27:18.078Z,96277.34
2023-05-10T10:29:54.963Z,96270.53
2023-05-10T10:32:31.296Z,96271.19
2023-05-10T10:34:59.389Z,96277.19
2023-05-10T10:37:45.138Z,96277.19
2023-05-10T10:40:27.393Z,96288.34
2023-05-10T10:42:55.660Z,96292.31
2023-05-10T10:45:26.401Z,96309.91
2023-05-10T10:48:24.552Z,96309.34
2023-05-10T10:50:59.666Z,96314.69
2023-05-10T10:53:29.990Z,96318.50
2023-05-10T10:56:08.629Z,96323.72
2023-05-10T10:58:37.121Z,96317.81
2023-05-10T11:01:17.495Z,96323.00
2023-05-10T11:04:21.671Z,96312.34
2023-05-10T11:06:49.526Z,96312.69
2023-05-10T11:09:18.480Z,96308.44
2023-05-10T11:11:55.932Z,96318.31
2023-05-10T11:14:24.713Z,96315.28
2023-05-10T11:16:52.764Z,96310.59
2023-05-10T11:19:22.031Z,96309.34
2023-05-10T11:21:51.526Z,96310.13
2023-05-10T11:24:21.444Z,96313.38
2023-05-10T11:26:52.146Z,96314.63
2023-05-10T11:29:21.251Z,96306.69
2023-05-10T11:31:50.010Z,96309.22
2023-05-10T11:34:31.079Z,96310.31
2023-05-10T11:36:59.772Z,96310.63
2023-05-10T11:39:29.523Z,96318.25
2023-05-10T11:41:58.530Z,96324.66
2023-05-10T11:44:31.349Z,96317.00
2023-05-10T11:47:00.770Z,96322.69
2023-05-10T11:49:30.196Z,96329.50
2023-05-10T11:52:06.288Z,96332.06
2023-05-10T11:54:35.793Z,96333.50
2023-05-10T11:57:03.903Z,96327.44
2023-05-10T11:59:31.722Z,96325.13
2023-05-10T12:01:59.844Z,96335.31
2023-05-10T12:04:30.502Z,96322.22
2023-05-10T12:06:58.604Z,96329.31
2023-05-10T12:09:39.764Z,96328.91
2023-05-10T12:12:11.501Z,96334.63
2023-05-10T12:14:39.344Z,96322.84
2023-05-10T12:17:07.130Z,96326.06
2023-05-10T12:19:41.141Z,96323.28
2023-05-10T12:22:09.024Z,96335.59
2023-05-10T12:24:37.054Z,96333.56
2023-05-10T12:27:08.974Z,96332.56
2023-05-10T12:29:36.824Z,96336.94
2023-05-10T12:32:04.640Z,96330.09
2023-05-10T12:34:34.940Z,96335.66
2023-05-10T12:37:04.522Z,96337.50
2023-05-10T12:39:42.848Z,96342.34
2023-05-10T12:42:11.147Z,96332.66
2023-05-10T12:44:38.901Z,96332.03
2023-05-10T12:47:06.842Z,96335.03
2023-05-10T12:49:34.958Z,96337.97
2023-05-10T12:52:04.434Z,96338.53
2023-05-10T12:54:32.298Z,96328.38
2023-05-10T12:57:00.084Z,96330.88
2023-05-10T12:59:28.031Z,96331.50
2023-05-10T13:01:55.986Z,96326.59
2023-05-10T13:04:23.768Z,96325.91
2023-05-10T13:06:51.931Z,96326.66
2023-05-10T13:09:21.439Z,96329.31
2023-05-10T13:11:50.347Z,96334.31
2023-05-10T13:14:20.365Z,96333.84
2023-05-10T13:16:48.271Z,96325.38
2023-05-10T13:19:16.750Z,96332.03
2023-05-10T13:21:45.288Z,96330.00
2023-05-10T13:24:14.657Z,96334.88
2023-05-10T13:26:43.911Z,96334.03
2023-05-10T13:29:11.830Z,96325.56
2023-05-10T13:31:39.671Z,96330.41
2023-05-10T13:34:07.852Z,96322.59
2023-05-10T13:36:35.607Z,96325.75
2023-05-10T13:39:04.378Z,96326.91
2023-05-10T13:41:32.521Z,96319.44
2023-05-10T13:44:02.662Z,96316.50
2023-05-10T13:46:31.062Z,96310.50
2023-05-10T13:48:58.933Z,96303.94
2023-05-10T13:51:26.747Z,96311.78
2023-05-10T13:53:54.508Z,96314.81
2023-05-10T13:56:22.513Z,96315.84
2023-05-10T13:58:51.160Z,96311.19
2023-05-10T14:01:20.531Z,96310.31
2023-05-10T14:03:49.148Z,96311.19
2023-05-10T14:06:17.195Z,96308.69
2023-05-10T14:08:45.035Z,96307.53
2023-05-10T14:11:12.832Z,96310.19
2023-05-10T14:13:40.667Z,96308.69
2023-05-10T14:16:09.086Z,96310.19
2023-05-10T14:18:38.316Z,96301.88
2023-05-10T14:21:06.399Z,96302.53
2023-05-10T14:23:34.205Z,96298.03
2023-05-10T14:26:02.779Z,96300.03
2023-05-10T14:28:32.176Z,96297.84
2023-05-10T14:31:01.183Z,96295.53
2023-05-10T14:33:29.156Z,96300.53
2023-05-10T14:35:58.552Z,96294.88
2023-05-10T14:38:26.364Z,96292.19
2023-05-10T14:40:54.158Z,96293.19
2023-05-10T14:43:21.922Z,96294.38
2023-05-10T14:45:49.709Z,96299.53
2023-05-10T14:48:18.478Z,96296.69
2023-05-10T14:50:47.593Z,96292.16
2023-05-10T14:53:16.886Z,96296.44
2023-05-10T14:55:44.957Z,96291.47
2023-05-10T14:58:12.779Z,96301.78
2023-05-10T15:00:40.546Z,96290.97
2023-05-10T15:03:09.097Z,96294.84
2023-05-10T15:05:38.252Z,96298.13
2023-05-10T15:08:06.571Z,96301.00
2023-05-10T15:10:35.993Z,96299.78
2023-05-10T15:13:03.806Z,96297.78
2023-05-10T15:15:31.675Z,96300.59
2023-05-10T15:17:59.574Z,96300.53
2023-05-10T15:20:27.503Z,96294.31
2023-05-10T15:22:55.324Z,96300.75
2023-05-10T15:25:24.661Z,96305.59
2023-05-10T15:27:53.885Z,96302.09
2023-05-10T15:30:21.712Z,96300.44
2023-05-10T15:32:49.712Z,96303.13
2023-05-10T15:35:18.225Z,96308.78
2023-05-10T15:37:46.213Z,96308.91
2023-05-10T15:40:14.341Z,96307.59
2023-05-10T15:42:42.155Z,96314.00
2023-05-10T15:45:13.215Z,96312.91
2023-05-10T15:47:41.313Z,96319.44
2023-05-10T15:50:09.910Z,96319.78
2023-05-10T15:52:37.712Z,96316.28
2023-05-10T15:55:12.655Z,96310.16
2023-05-10T15:57:41.292Z,96316.28
2023-05-10T16:00:12.610Z,96315.47
2023-05-10T16:02:40.582Z,96318.81
2023-05-10T16:05:09.560Z,96313.47
2023-05-10T16:07:37.408Z,96314.75
2023-05-10T16:10:06.993Z,96315.38
2023-05-10T16:12:35.612Z,96317.69
2023-05-10T16:15:03.428Z,96318.03
2023-05-10T16:17:32.702Z,96319.47
2023-05-10T16:20:01.168Z,96319.28
2023-05-10T16:22:29.593Z,96317.16
2023-05-10T16:24:58.017Z,96327.94
2023-05-10T16:27:28.608Z,96331.09
2023-05-10T16:29:56.612Z,96329.53
2023-05-10T16:32:24.503Z,96332.19
2023-05-10T16:34:54.421Z,96331.47
2023-05-10T16:37:22.370Z,96328.50
2023-05-10T16:39:50.263Z,96337.59
2023-05-10T16:42:18.141Z,96336.91
2023-05-10T16:44:46.170Z,96333.44
2023-05-10T16:47:14.051Z,96338.22
2023-05-10T16:49:42.464Z,96341.88
2023-05-10T16:52:12.085Z,96344.31
2023-05-10T16:54:40.348Z,96346.31
2023-05-10T16:57:08.581Z,96342.81
2023-05-10T16:59:36.475Z,96349.78
2023-05-10T17:02:04.572Z,96344.47
2023-05-10T17:04:32.522Z,96341.13
2023-05-10T17:07:00.432Z,96351.78
2023-05-10T17:09:29.872Z,96346.63
2023-05-10T17:11:57.921Z,96350.41
2023-05-10T17:14:25.960Z,96350.72
2023-05-10T17:16:55.097Z,96347.91
2023-05-10T17:19:26.149Z,96353.25
2023-05-10T17:21:54.205Z,96354.38
2023-05-10T17:24:22.035Z,96364.22
2023-05-10T17:26:51.291Z,96366.19
2023-05-10T17:29:19.111Z,96361.56
2023-05-10T17:31:48.057Z,96367.38
2023-05-10T17:34:15.920Z,96369.97
2023-05-10T17:36:43.894Z,96369.50
2023-05-10T17:39:11.866Z,96368.81
2023-05-10T17:41:39.811Z,96373.47
2023-05-10T17:44:09.029Z,96367.81
2023-05-10T17:46:37.960Z,96371.94
2023-05-10T17:49:05.800Z,96367.91
2023-05-10T17:51:33.665Z,96373.22
2023-05-10T17:54:01.584Z,96371.88
2023-05-10T17:56:29.868Z,96384.50
2023-05-10T17:58:57.766Z,96378.81
2023-05-10T18:01:27.003Z,96380.84
2023-05-10T18:03:54.887Z,96381.91
2023-05-10T18:06:23.558Z,96377.56
2023-05-10T18:08:51.492Z,96378.41
2023-05-10T18:11:20.116Z,96377.72
2023-05-10T18:13:49.625Z,96380.84
2023-05-10T18:16:17.530Z,96378.25
2023-05-10T18:18:46.788Z,96377.28
2023-05-10T18:21:14.689Z,96381.22
2023-05-10T18:23:42.449Z,96380.16
2023-05-10T18:26:10.322Z,96388.13
2023-05-10T18:28:38.166Z,96387.75
2023-05-10T18:31:06.008Z,96383.56
2023-05-10T18:33:33.784Z,96383.69
2023-05-10T18:36:04.180Z,96385.38
2023-05-10T18:38:32.049Z,96390.16
2023-05-10T18:40:59.925Z,96384.00
2023-05-10T18:43:27.762Z,96383.91
2023-05-10T18:45:55.603Z,96383.06
2023-05-10T18:48:23.430Z,96390.34
2023-05-10T18:50:51.688Z,96388.53
2023-05-10T18:53:22.502Z,96387.31
2023-05-10T18:55:56.870Z,96394.06
2023-05-10T18:58:24.756Z,96391.22
2023-05-10T19:00:53.250Z,96387.06
2023-05-10T19:03:21.164Z,96394.34
2023-05-10T19:05:49.015Z,96396.16
2023-05-10T19:08:17.186Z,96404.56
2023-05-10T19:10:46.828Z,96404.19
2023-05-10T19:13:15.916Z,96399.56
2023-05-10T19:15:43.746Z,96407.22
2023-05-10T19:18:11.639Z,96411.44
2023-05-10T19:20:42.265Z,96416.75
2023-05-10T19:23:12.337Z,96415.25
2023-05-10T19:25:42.262Z,96414.53
2023-05-10T19:28:13.513Z,96419.84
2023-05-10T19:30:41.388Z,96420.44
2023-05-10T19:33:10.143Z,96421.25
2023-05-10T19:35:38.095Z,96424.63
2023-05-10T19:38:05.836Z,96423.50
2023-05-10T19:40:33.765Z,96422.81
2023-05-10T19:43:01.654Z,96422.13
2023-05-10T19:45:30.842Z,96417.13
2023-05-10T19:47:58.854Z,96419.59
2023-05-10T19:50:26.605Z,96425.34
2023-05-10T19:52:55.714Z,96428.16
2023-05-10T19:55:28.966Z,96424.13
2023-05-10T19:57:56.802Z,96420.47
2023-05-10T20:00:27.267Z,96425.25
2023-05-10T20:02:56.891Z,96421.59
2023-05-10T20:05:25.204Z,96416.88
2023-05-10T20:07:54.257Z,96416.59
2023-05-10T20:10:24.294Z,96423.28
2023-05-10T20:12:54.215Z,96427.06
2023-05-10T20:15:23.441Z,96414.09
2023-05-10T20:17:53.987Z,96417.88
2023-05-10T20:20:23.878Z,96426.13
2023-05-10T20:22:52.617Z,96423.47
2023-05-10T20:25:20.521Z,96425.25
2023-05-10T20:27:50.772Z,96421.09
2023-05-10T20:30:19.097Z,96425.84
2023-05-10T20:32:47.078Z,96424.72
2023-05-10T20:35:15.016Z,96417.06
2023-05-10T20:37:44.615Z,96423.34
2023-05-10T20:40:12.980Z,96427.09
2023-05-10T20:42:40.838Z,96424.47
2023-05-10T20:45:09.953Z,96422.22
2023-05-10T20:47:37.868Z,96424.75
2023-05-10T20:50:06.540Z,96417.22
2023-05-10T20:52:34.354Z,96424.59
2023-05-10T20:55:03.633Z,96420.59
2023-05-10T20:57:31.476Z,96414.56
2023-05-10T20:59:59.359Z,96414.16
2023-05-10T21:02:27.319Z,96415.69
2023-05-10T21:04:57.761Z,96415.97
2023-05-10T21:07:26.216Z,96410.81
2023-05-10T21:09:55.105Z,96410.81
2023-05-10T21:12:24.592Z,96405.38
2023-05-10T21:14:52.417Z,96406.75
2023-05-10T21:17:20.415Z,96413.19
2023-05-10T21:19:48.428Z,96417.78
2023-05-10T21:22:16.406Z,96410.84
2023-05-10T21:24:44.726Z,96411.38
2023-05-10T21:27:13.715Z,96407.72
2023-05-10T21:29:44.246Z,96411.25
2023-05-10T21:32:15.447Z,96417.09
2023-05-10T21:34:45.444Z,96416.41
2023-05-10T21:37:14.644Z,96420.28
2023-05-10T21:39:42.871Z,96419.47
2023-05-10T21:42:11.112Z,96413.88
2023-05-10T21:44:39.815Z,96413.63
2023-05-10T21:47:09.371Z,96417.50
2023-05-10T21:49:38.801Z,96414.16
2023-05-10T21:52:07.288Z,96408.97
2023-05-10T21:54:35.406Z,96412.22
2023-05-10T21:57:03.643Z,96410.81
2023-05-10T21:59:31.480Z,96406.75
2023-05-10T22:02:00.752Z,96409.97
2023-05-10T22:04:30.720Z,96411.34
2023-05-10T22:06:58.580Z,96410.78
2023-05-10T22:09:26.399Z,96409.09
2023-05-10T22:11:55.380Z,96416.38
2023-05-10T22:14:24.281Z,96419.25
2023-05-10T22:16:52.264Z,96420.47
2023-05-10T22:19:20.191Z,96413.25
2023-05-10T22:21:49.531Z,96417.72
2023-05-10T22:24:17.532Z,96411.59
2023-05-10T22:26:45.703Z,96417.84
2023-05-10T22:29:13.552Z,96415.75
2023-05-10T22:31:41.769Z,96419.63
2023-05-10T22:34:09.648Z,96421.31
2023-05-10T22:36:38.500Z,96420.34
2023-05-10T22:39:08.822Z,96415.03
2023-05-10T22:41:36.687Z,96411.69
2023-05-10T22:44:05.470Z,96408.22
2023-05-10T22:46:34.595Z,96411.69
2023-05-10T22:49:04.040Z,96409.56
2023-05-10T22:51:31.893Z,96407.09
2023-05-10T22:53:59.729Z,96406.38
2023-05-10T22:56:29.029Z,96408.72
2023-05-10T22:58:59.797Z,96406.78
2023-05-10T23:01:28.493Z,96407.88
2023-05-10T23:03:57.122Z,96401.75
2023-05-10T23:06:27.368Z,96399.13
2023-05-10T23:08:55.343Z,96403.56
2023-05-10T23:11:23.111Z,96404.81
2023-05-10T23:13:52.285Z,96410.53
2023-05-10T23:16:21.429Z,96408.00
2023-05-10T23:18:52.143Z,96413.59
2023-05-10T23:21:20.134Z,96417.06
2023-05-10T23:23:49.089Z,96415.66
2023-05-10T23:26:17.175Z,96411.94
2023-05-10T23:28:45.907Z,96411.94
2023-05-10T23:31:16.424Z,96410.94
2023-05-10T23:33:44.279Z,96417.47
2023-05-10T23:36:12.407Z,96419.00
2023-05-10T23:38:41.224Z,96414.69
2023-05-10T23:41:10.444Z,96419.28
2023-05-10T23:43:39.140Z,96419.41
2023-05-10T23:46:07.072Z,96422.06
2023-05-10T23:48:37.058Z,96417.63
2023-05-10T23:51:05.242Z,96414.28
2023-05-10T23:53:34.094Z,96422.34
2023-05-10T23:56:02.005Z,96409.94
2023-05-10T23:58:30.509Z,96404.50
